sensor_id;sensor_type;location;lat;lon;timestamp;P1;durP1;ratioP1;P2;durP2;ratioP2
71856;SDS011;63344;46.980;28.882;2023-07-20T00:02:10;15.43;;;8.70;;
71856;SDS011;63344;46.980;28.882;2023-07-20T00:04:38;14.32;;;8.32;;
71856;SDS011;63344;46.980;28.882;2023-07-20T00:07:05;14.32;;;8.82;;
71856;SDS011;63344;46.980;28.882;2023-07-20T00:09:33;12.18;;;8.15;;
71856;SDS011;63344;46.980;28.882;2023-07-20T00:12:00;10.23;;;6.80;;
71856;SDS011;63344;46.980;28.882;2023-07-20T00:14:27;12.27;;;8.20;;
71856;SDS011;63344;46.980;28.882;2023-07-20T00:16:55;12.95;;;7.55;;
71856;SDS011;63344;46.980;28.882;2023-07-20T00:19:24;16.95;;;7.65;;
71856;SDS011;63344;46.980;28.882;2023-07-20T00:21:54;16.88;;;7.28;;
71856;SDS011;63344;46.980;28.882;2023-07-20T00:24:23;14.43;;;7.25;;
71856;SDS011;63344;46.980;28.882;2023-07-20T00:26:50;15.93;;;7.40;;
71856;SDS011;63344;46.980;28.882;2023-07-20T00:29:18;15.63;;;7.05;;
71856;SDS011;63344;46.980;28.882;2023-07-20T00:31:45;10.32;;;6.78;;
71856;SDS011;63344;46.980;28.882;2023-07-20T00:34:14;13.38;;;7.05;;
71856;SDS011;63344;46.980;28.882;2023-07-20T00:36:41;14.70;;;8.02;;
71856;SDS011;63344;46.980;28.882;2023-07-20T00:39:09;14.35;;;6.47;;
71856;SDS011;63344;46.980;28.882;2023-07-20T00:41:36;16.98;;;6.40;;
71856;SDS011;63344;46.980;28.882;2023-07-20T00:44:04;8.88;;;5.13;;
71856;SDS011;63344;46.980;28.882;2023-07-20T00:46:31;10.70;;;5.18;;
71856;SDS011;63344;46.980;28.882;2023-07-20T00:51:27;15.98;;;3.55;;
71856;SDS011;63344;46.980;28.882;2023-07-20T00:53:55;7.57;;;3.38;;
71856;SDS011;63344;46.980;28.882;2023-07-20T00:56:24;8.10;;;4.20;;
71856;SDS011;63344;46.980;28.882;2023-07-20T00:58:52;8.68;;;4.53;;
71856;SDS011;63344;46.980;28.882;2023-07-20T01:01:20;5.13;;;3.58;;
71856;SDS011;63344;46.980;28.882;2023-07-20T01:03:48;7.25;;;3.47;;
71856;SDS011;63344;46.980;28.882;2023-07-20T01:12:03;6.57;;;3.63;;
71856;SDS011;63344;46.980;28.882;2023-07-20T01:14:35;9.38;;;4.22;;
71856;SDS011;63344;46.980;28.882;2023-07-20T01:17:03;6.43;;;3.47;;
71856;SDS011;63344;46.980;28.882;2023-07-20T01:19:31;7.05;;;3.50;;
71856;SDS011;63344;46.980;28.882;2023-07-20T01:32:55;7.07;;;4.38;;
71856;SDS011;63344;46.980;28.882;2023-07-20T01:35:27;7.85;;;3.85;;
71856;SDS011;63344;46.980;28.882;2023-07-20T01:37:56;10.48;;;3.63;;
71856;SDS011;63344;46.980;28.882;2023-07-20T01:40:25;5.93;;;3.45;;
71856;SDS011;63344;46.980;28.882;2023-07-20T01:42:53;8.23;;;4.03;;
71856;SDS011;63344;46.980;28.882;2023-07-20T01:45:20;6.57;;;2.95;;
71856;SDS011;63344;46.980;28.882;2023-07-20T01:47:48;8.85;;;3.05;;
71856;SDS011;63344;46.980;28.882;2023-07-20T01:50:15;6.28;;;3.30;;
71856;SDS011;63344;46.980;28.882;2023-07-20T01:52:42;7.95;;;3.15;;
71856;SDS011;63344;46.980;28.882;2023-07-20T01:55:10;5.97;;;3.00;;
71856;SDS011;63344;46.980;28.882;2023-07-20T01:57:37;6.93;;;3.38;;
71856;SDS011;63344;46.980;28.882;2023-07-20T02:00:05;7.65;;;3.25;;
71856;SDS011;63344;46.980;28.882;2023-07-20T02:02:36;8.02;;;4.00;;
71856;SDS011;63344;46.980;28.882;2023-07-20T02:05:03;6.80;;;4.20;;
71856;SDS011;63344;46.980;28.882;2023-07-20T02:07:31;7.00;;;4.43;;
71856;SDS011;63344;46.980;28.882;2023-07-20T02:09:58;7.47;;;4.00;;
71856;SDS011;63344;46.980;28.882;2023-07-20T02:12:26;9.70;;;3.88;;
71856;SDS011;63344;46.980;28.882;2023-07-20T02:14:53;6.43;;;3.80;;
71856;SDS011;63344;46.980;28.882;2023-07-20T02:17:20;7.80;;;4.20;;
71856;SDS011;63344;46.980;28.882;2023-07-20T02:19:50;6.70;;;4.10;;
71856;SDS011;63344;46.980;28.882;2023-07-20T02:22:19;9.15;;;4.20;;
71856;SDS011;63344;46.980;28.882;2023-07-20T02:24:47;10.38;;;3.85;;
71856;SDS011;63344;46.980;28.882;2023-07-20T02:27:15;12.57;;;4.28;;
71856;SDS011;63344;46.980;28.882;2023-07-20T02:29:43;15.75;;;4.72;;
71856;SDS011;63344;46.980;28.882;2023-07-20T02:32:10;9.55;;;4.15;;
71856;SDS011;63344;46.980;28.882;2023-07-20T02:34:37;6.65;;;3.70;;
71856;SDS011;63344;46.980;28.882;2023-07-20T02:37:05;6.10;;;3.22;;
71856;SDS011;63344;46.980;28.882;2023-07-20T02:39:34;7.22;;;3.22;;
71856;SDS011;63344;46.980;28.882;2023-07-20T02:42:02;5.00;;;3.20;;
71856;SDS011;63344;46.980;28.882;2023-07-20T02:44:29;7.95;;;3.35;;
71856;SDS011;63344;46.980;28.882;2023-07-20T02:46:57;7.78;;;3.67;;
71856;SDS011;63344;46.980;28.882;2023-07-20T02:49:24;7.80;;;3.60;;
71856;SDS011;63344;46.980;28.882;2023-07-20T02:51:55;6.70;;;3.30;;
71856;SDS011;63344;46.980;28.882;2023-07-20T02:54:22;5.95;;;3.67;;
71856;SDS011;63344;46.980;28.882;2023-07-20T02:56:49;10.95;;;3.88;;
71856;SDS011;63344;46.980;28.882;2023-07-20T02:59:16;7.53;;;4.20;;
71856;SDS011;63344;46.980;28.882;2023-07-20T03:01:44;9.32;;;4.20;;
71856;SDS011;63344;46.980;28.882;2023-07-20T03:04:11;5.25;;;3.33;;
71856;SDS011;63344;46.980;28.882;2023-07-20T03:06:39;6.47;;;3.47;;
71856;SDS011;63344;46.980;28.882;2023-07-20T03:09:06;12.45;;;4.22;;
71856;SDS011;63344;46.980;28.882;2023-07-20T03:11:34;8.55;;;3.60;;
71856;SDS011;63344;46.980;28.882;2023-07-20T03:14:02;7.75;;;3.50;;
71856;SDS011;63344;46.980;28.882;2023-07-20T03:16:29;8.80;;;3.78;;
71856;SDS011;63344;46.980;28.882;2023-07-20T03:19:00;6.70;;;3.67;;
71856;SDS011;63344;46.980;28.882;2023-07-20T03:21:28;9.52;;;4.60;;
71856;SDS011;63344;46.980;28.882;2023-07-20T03:23:55;10.05;;;4.03;;
71856;SDS011;63344;46.980;28.882;2023-07-20T03:26:23;7.15;;;3.95;;
71856;SDS011;63344;46.980;28.882;2023-07-20T03:28:51;7.88;;;3.22;;
71856;SDS011;63344;46.980;28.882;2023-07-20T03:31:18;9.07;;;3.75;;
71856;SDS011;63344;46.980;28.882;2023-07-20T03:33:45;5.53;;;3.58;;
71856;SDS011;63344;46.980;28.882;2023-07-20T03:36:13;6.32;;;3.70;;
71856;SDS011;63344;46.980;28.882;2023-07-20T03:38:41;8.27;;;3.58;;
71856;SDS011;63344;46.980;28.882;2023-07-20T03:41:08;7.65;;;3.40;;
71856;SDS011;63344;46.980;28.882;2023-07-20T03:43:36;8.18;;;4.38;;
71856;SDS011;63344;46.980;28.882;2023-07-20T03:46:03;6.90;;;4.00;;
71856;SDS011;63344;46.980;28.882;2023-07-20T03:48:34;6.28;;;3.80;;
71856;SDS011;63344;46.980;28.882;2023-07-20T03:51:02;6.35;;;3.55;;
71856;SDS011;63344;46.980;28.882;2023-07-20T03:53:29;7.55;;;3.88;;
71856;SDS011;63344;46.980;28.882;2023-07-20T03:55:57;6.63;;;3.92;;
71856;SDS011;63344;46.980;28.882;2023-07-20T03:58:24;7.28;;;3.40;;
71856;SDS011;63344;46.980;28.882;2023-07-20T04:00:51;5.75;;;3.67;;
71856;SDS011;63344;46.980;28.882;2023-07-20T04:03:19;4.88;;;3.25;;
71856;SDS011;63344;46.980;28.882;2023-07-20T04:05:47;4.85;;;3.20;;
71856;SDS011;63344;46.980;28.882;2023-07-20T04:08:15;6.70;;;3.55;;
71856;SDS011;63344;46.980;28.882;2023-07-20T04:10:43;7.10;;;3.42;;
71856;SDS011;63344;46.980;28.882;2023-07-20T04:13:11;6.38;;;3.63;;
71856;SDS011;63344;46.980;28.882;2023-07-20T04:15:39;6.22;;;3.90;;
71856;SDS011;63344;46.980;28.882;2023-07-20T04:18:06;7.30;;;3.95;;
71856;SDS011;63344;46.980;28.882;2023-07-20T04:20:34;6.35;;;4.22;;
71856;SDS011;63344;46.980;28.882;2023-07-20T04:23:01;5.57;;;3.20;;
71856;SDS011;63344;46.980;28.882;2023-07-20T04:25:29;6.65;;;3.95;;
71856;SDS011;63344;46.980;28.882;2023-07-20T04:27:57;6.72;;;3.67;;
71856;SDS011;63344;46.980;28.882;2023-07-20T04:30:32;9.77;;;3.60;;
71856;SDS011;63344;46.980;28.882;2023-07-20T04:33:00;13.15;;;4.32;;
71856;SDS011;63344;46.980;28.882;2023-07-20T04:35:45;6.47;;;3.65;;
71856;SDS011;63344;46.980;28.882;2023-07-20T04:38:19;7.15;;;3.97;;
71856;SDS011;63344;46.980;28.882;2023-07-20T04:40:52;5.70;;;3.88;;
71856;SDS011;63344;46.980;28.882;2023-07-20T04:43:19;6.68;;;4.53;;
71856;SDS011;63344;46.980;28.882;2023-07-20T04:45:52;6.20;;;3.63;;
71856;SDS011;63344;46.980;28.882;2023-07-20T04:48:22;6.45;;;4.28;;
71856;SDS011;63344;46.980;28.882;2023-07-20T04:50:51;5.32;;;3.25;;
71856;SDS011;63344;46.980;28.882;2023-07-20T04:53:20;7.28;;;3.58;;
71856;SDS011;63344;46.980;28.882;2023-07-20T04:55:50;6.68;;;3.80;;
71856;SDS011;63344;46.980;28.882;2023-07-20T04:58:19;7.95;;;4.35;;
71856;SDS011;63344;46.980;28.882;2023-07-20T05:00:48;6.53;;;3.58;;
71856;SDS011;63344;46.980;28.882;2023-07-20T05:03:16;5.00;;;4.13;;
71856;SDS011;63344;46.980;28.882;2023-07-20T05:05:44;5.53;;;3.33;;
71856;SDS011;63344;46.980;28.882;2023-07-20T05:08:14;5.10;;;3.60;;
71856;SDS011;63344;46.980;28.882;2023-07-20T05:10:43;5.38;;;3.08;;
71856;SDS011;63344;46.980;28.882;2023-07-20T05:13:10;8.55;;;3.60;;
71856;SDS011;63344;46.980;28.882;2023-07-20T05:15:38;5.45;;;3.60;;
71856;SDS011;63344;46.980;28.882;2023-07-20T05:18:05;7.05;;;3.95;;
71856;SDS011;63344;46.980;28.882;2023-07-20T05:20:34;5.22;;;3.42;;
71856;SDS011;63344;46.980;28.882;2023-07-20T05:23:02;4.55;;;3.40;;
71856;SDS011;63344;46.980;28.882;2023-07-20T05:25:30;5.43;;;3.50;;
71856;SDS011;63344;46.980;28.882;2023-07-20T05:27:58;6.20;;;3.30;;
71856;SDS011;63344;46.980;28.882;2023-07-20T05:30:25;5.85;;;3.42;;
71856;SDS011;63344;46.980;28.882;2023-07-20T05:32:53;6.53;;;3.38;;
71856;SDS011;63344;46.980;28.882;2023-07-20T05:35:21;5.35;;;3.33;;
71856;SDS011;63344;46.980;28.882;2023-07-20T05:37:49;5.35;;;3.95;;
71856;SDS011;63344;46.980;28.882;2023-07-20T05:40:17;6.25;;;3.92;;
71856;SDS011;63344;46.980;28.882;2023-07-20T05:42:48;9.73;;;4.15;;
71856;SDS011;63344;46.980;28.882;2023-07-20T05:45:19;5.78;;;4.00;;
71856;SDS011;63344;46.980;28.882;2023-07-20T05:47:47;7.32;;;4.30;;
71856;SDS011;63344;46.980;28.882;2023-07-20T05:50:15;15.10;;;3.80;;
71856;SDS011;63344;46.980;28.882;2023-07-20T05:52:43;8.30;;;3.58;;
71856;SDS011;63344;46.980;28.882;2023-07-20T05:55:11;7.68;;;4.70;;
71856;SDS011;63344;46.980;28.882;2023-07-20T05:57:38;7.63;;;4.85;;
71856;SDS011;63344;46.980;28.882;2023-07-20T06:00:09;5.97;;;4.03;;
71856;SDS011;63344;46.980;28.882;2023-07-20T06:02:40;7.60;;;4.47;;
71856;SDS011;63344;46.980;28.882;2023-07-20T06:07:41;9.95;;;4.65;;
71856;SDS011;63344;46.980;28.882;2023-07-20T06:10:08;11.57;;;5.50;;
71856;SDS011;63344;46.980;28.882;2023-07-20T06:12:36;7.05;;;4.47;;
71856;SDS011;63344;46.980;28.882;2023-07-20T06:15:04;10.40;;;4.20;;
71856;SDS011;63344;46.980;28.882;2023-07-20T06:17:33;7.60;;;4.88;;
71856;SDS011;63344;46.980;28.882;2023-07-20T06:22:35;8.07;;;4.90;;
71856;SDS011;63344;46.980;28.882;2023-07-20T06:25:04;7.88;;;4.90;;
71856;SDS011;63344;46.980;28.882;2023-07-20T06:27:32;9.07;;;4.53;;
71856;SDS011;63344;46.980;28.882;2023-07-20T06:32:27;12.48;;;4.85;;
71856;SDS011;63344;46.980;28.882;2023-07-20T06:34:56;12.27;;;5.30;;
71856;SDS011;63344;46.980;28.882;2023-07-20T06:37:23;9.75;;;4.63;;
71856;SDS011;63344;46.980;28.882;2023-07-20T06:39:51;9.48;;;4.93;;
71856;SDS011;63344;46.980;28.882;2023-07-20T06:42:22;11.32;;;5.13;;
71856;SDS011;63344;46.980;28.882;2023-07-20T06:44:50;8.48;;;4.47;;
71856;SDS011;63344;46.980;28.882;2023-07-20T06:47:17;8.52;;;5.05;;
71856;SDS011;63344;46.980;28.882;2023-07-20T06:49:49;12.00;;;5.50;;
71856;SDS011;63344;46.980;28.882;2023-07-20T06:52:16;12.35;;;5.30;;
71856;SDS011;63344;46.980;28.882;2023-07-20T06:54:44;15.23;;;5.80;;
71856;SDS011;63344;46.980;28.882;2023-07-20T06:57:11;13.75;;;6.10;;
71856;SDS011;63344;46.980;28.882;2023-07-20T06:59:44;12.20;;;5.93;;
71856;SDS011;63344;46.980;28.882;2023-07-20T07:02:16;10.32;;;5.53;;
71856;SDS011;63344;46.980;28.882;2023-07-20T07:04:44;9.55;;;5.55;;
71856;SDS011;63344;46.980;28.882;2023-07-20T07:07:14;9.15;;;5.47;;
71856;SDS011;63344;46.980;28.882;2023-07-20T07:09:53;18.90;;;6.57;;
71856;SDS011;63344;46.980;28.882;2023-07-20T07:12:21;15.68;;;6.35;;
71856;SDS011;63344;46.980;28.882;2023-07-20T07:14:54;14.93;;;6.38;;
71856;SDS011;63344;46.980;28.882;2023-07-20T07:17:31;11.43;;;7.72;;
71856;SDS011;63344;46.980;28.882;2023-07-20T07:20:00;14.13;;;6.90;;
71856;SDS011;63344;46.980;28.882;2023-07-20T07:22:30;12.52;;;6.68;;
71856;SDS011;63344;46.980;28.882;2023-07-20T07:24:58;15.10;;;7.22;;
71856;SDS011;63344;46.980;28.882;2023-07-20T07:27:25;9.32;;;6.32;;
71856;SDS011;63344;46.980;28.882;2023-07-20T07:29:53;18.35;;;7.30;;
71856;SDS011;63344;46.980;28.882;2023-07-20T07:32:21;16.63;;;7.93;;
71856;SDS011;63344;46.980;28.882;2023-07-20T07:34:52;22.25;;;6.72;;
71856;SDS011;63344;46.980;28.882;2023-07-20T07:37:21;17.77;;;7.68;;
71856;SDS011;63344;46.980;28.882;2023-07-20T07:39:53;12.73;;;6.90;;
71856;SDS011;63344;46.980;28.882;2023-07-20T07:42:21;21.63;;;7.75;;
71856;SDS011;63344;46.980;28.882;2023-07-20T07:44:52;14.52;;;6.80;;
71856;SDS011;63344;46.980;28.882;2023-07-20T07:47:20;10.85;;;6.20;;
71856;SDS011;63344;46.980;28.882;2023-07-20T07:49:49;18.27;;;7.70;;
71856;SDS011;63344;46.980;28.882;2023-07-20T07:52:17;14.43;;;7.22;;
71856;SDS011;63344;46.980;28.882;2023-07-20T07:54:45;14.13;;;7.50;;
71856;SDS011;63344;46.980;28.882;2023-07-20T07:57:12;21.45;;;7.25;;
71856;SDS011;63344;46.980;28.882;2023-07-20T07:59:42;9.90;;;6.53;;
71856;SDS011;63344;46.980;28.882;2023-07-20T08:07:08;12.65;;;6.05;;
71856;SDS011;63344;46.980;28.882;2023-07-20T08:09:36;10.75;;;5.93;;
71856;SDS011;63344;46.980;28.882;2023-07-20T08:12:05;11.73;;;4.95;;
71856;SDS011;63344;46.980;28.882;2023-07-20T08:17:00;11.00;;;5.60;;
71856;SDS011;63344;46.980;28.882;2023-07-20T08:21:57;11.07;;;4.60;;
71856;SDS011;63344;46.980;28.882;2023-07-20T08:24:24;10.77;;;3.97;;
71856;SDS011;63344;46.980;28.882;2023-07-20T08:26:52;6.25;;;3.75;;
71856;SDS011;63344;46.980;28.882;2023-07-20T08:29:20;9.40;;;4.57;;
71856;SDS011;63344;46.980;28.882;2023-07-20T08:31:52;10.55;;;4.65;;
71856;SDS011;63344;46.980;28.882;2023-07-20T08:34:24;7.07;;;4.80;;
71856;SDS011;63344;46.980;28.882;2023-07-20T08:36:58;6.10;;;4.65;;
71856;SDS011;63344;46.980;28.882;2023-07-20T08:39:26;9.63;;;3.92;;
71856;SDS011;63344;46.980;28.882;2023-07-20T08:41:55;5.63;;;4.15;;
71856;SDS011;63344;46.980;28.882;2023-07-20T08:44:28;6.63;;;3.92;;
71856;SDS011;63344;46.980;28.882;2023-07-20T08:46:55;8.40;;;5.22;;
71856;SDS011;63344;46.980;28.882;2023-07-20T08:49:24;6.65;;;4.43;;
71856;SDS011;63344;46.980;28.882;2023-07-20T08:51:53;7.95;;;5.32;;
71856;SDS011;63344;46.980;28.882;2023-07-20T08:54:21;7.93;;;5.80;;
71856;SDS011;63344;46.980;28.882;2023-07-20T08:56:49;8.70;;;4.80;;
71856;SDS011;63344;46.980;28.882;2023-07-20T08:59:19;6.88;;;5.30;;
71856;SDS011;63344;46.980;28.882;2023-07-20T09:01:51;8.43;;;5.22;;
71856;SDS011;63344;46.980;28.882;2023-07-20T09:04:21;6.78;;;4.88;;
71856;SDS011;63344;46.980;28.882;2023-07-20T09:07:07;6.72;;;5.10;;
71856;SDS011;63344;46.980;28.882;2023-07-20T09:09:39;13.15;;;5.40;;
71856;SDS011;63344;46.980;28.882;2023-07-20T09:12:14;6.18;;;5.05;;
71856;SDS011;63344;46.980;28.882;2023-07-20T09:14:45;8.57;;;4.63;;
71856;SDS011;63344;46.980;28.882;2023-07-20T09:17:26;4.90;;;4.45;;
71856;SDS011;63344;46.980;28.882;2023-07-20T09:19:54;6.78;;;4.63;;
71856;SDS011;63344;46.980;28.882;2023-07-20T09:22:21;6.55;;;4.18;;
71856;SDS011;63344;46.980;28.882;2023-07-20T09:24:49;8.52;;;4.28;;
71856;SDS011;63344;46.980;28.882;2023-07-20T09:27:20;6.18;;;4.18;;
71856;SDS011;63344;46.980;28.882;2023-07-20T09:29:48;5.65;;;3.15;;
71856;SDS011;63344;46.980;28.882;2023-07-20T09:32:20;6.07;;;3.78;;
71856;SDS011;63344;46.980;28.882;2023-07-20T09:34:52;4.82;;;3.88;;
71856;SDS011;63344;46.980;28.882;2023-07-20T09:39:48;8.30;;;4.40;;
71856;SDS011;63344;46.980;28.882;2023-07-20T09:42:21;6.60;;;3.60;;
71856;SDS011;63344;46.980;28.882;2023-07-20T09:44:54;5.22;;;4.05;;
71856;SDS011;63344;46.980;28.882;2023-07-20T09:47:23;4.13;;;3.72;;
71856;SDS011;63344;46.980;28.882;2023-07-20T09:49:58;6.40;;;4.03;;
71856;SDS011;63344;46.980;28.882;2023-07-20T09:52:32;5.07;;;3.58;;
71856;SDS011;63344;46.980;28.882;2023-07-20T09:55:04;5.75;;;3.95;;
71856;SDS011;63344;46.980;28.882;2023-07-20T09:57:33;4.07;;;3.67;;
71856;SDS011;63344;46.980;28.882;2023-07-20T10:00:06;4.85;;;3.47;;
71856;SDS011;63344;46.980;28.882;2023-07-20T10:02:47;4.57;;;3.78;;
71856;SDS011;63344;46.980;28.882;2023-07-20T10:05:19;7.22;;;3.65;;
71856;SDS011;63344;46.980;28.882;2023-07-20T10:07:48;6.65;;;4.10;;
71856;SDS011;63344;46.980;28.882;2023-07-20T10:10:40;5.47;;;4.05;;
71856;SDS011;63344;46.980;28.882;2023-07-20T10:13:17;5.50;;;4.38;;
71856;SDS011;63344;46.980;28.882;2023-07-20T10:15:53;6.22;;;4.65;;
71856;SDS011;63344;46.980;28.882;2023-07-20T10:18:35;5.53;;;4.25;;
71856;SDS011;63344;46.980;28.882;2023-07-20T10:21:09;4.97;;;3.20;;
71856;SDS011;63344;46.980;28.882;2023-07-20T10:23:40;4.38;;;3.65;;
71856;SDS011;63344;46.980;28.882;2023-07-20T10:26:19;5.22;;;3.85;;
71856;SDS011;63344;46.980;28.882;2023-07-20T10:28:47;4.82;;;2.92;;
71856;SDS011;63344;46.980;28.882;2023-07-20T10:31:16;4.57;;;3.40;;
71856;SDS011;63344;46.980;28.882;2023-07-20T10:33:46;7.00;;;3.28;;
71856;SDS011;63344;46.980;28.882;2023-07-20T10:36:16;4.57;;;3.13;;
71856;SDS011;63344;46.980;28.882;2023-07-20T10:38:57;3.95;;;2.65;;
71856;SDS011;63344;46.980;28.882;2023-07-20T10:41:32;3.88;;;3.22;;
71856;SDS011;63344;46.980;28.882;2023-07-20T10:44:01;5.15;;;3.45;;
71856;SDS011;63344;46.980;28.882;2023-07-20T10:46:35;9.73;;;3.88;;
71856;SDS011;63344;46.980;28.882;2023-07-20T10:49:13;7.13;;;3.20;;
71856;SDS011;63344;46.980;28.882;2023-07-20T10:51:47;5.45;;;3.17;;
71856;SDS011;63344;46.980;28.882;2023-07-20T10:54:33;6.35;;;3.30;;
71856;SDS011;63344;46.980;28.882;2023-07-20T10:57:21;3.95;;;3.03;;
71856;SDS011;63344;46.980;28.882;2023-07-20T10:59:51;5.25;;;3.08;;
71856;SDS011;63344;46.980;28.882;2023-07-20T11:02:19;5.47;;;3.55;;
71856;SDS011;63344;46.980;28.882;2023-07-20T11:04:49;6.47;;;3.45;;
71856;SDS011;63344;46.980;28.882;2023-07-20T11:07:17;5.68;;;3.78;;
71856;SDS011;63344;46.980;28.882;2023-07-20T11:10:14;4.55;;;3.30;;
71856;SDS011;63344;46.980;28.882;2023-07-20T11:18:26;6.75;;;3.20;;
71856;SDS011;63344;46.980;28.882;2023-07-20T11:20:54;4.07;;;2.90;;
71856;SDS011;63344;46.980;28.882;2023-07-20T11:23:22;4.38;;;3.20;;
71856;SDS011;63344;46.980;28.882;2023-07-20T11:25:50;7.35;;;3.30;;
71856;SDS011;63344;46.980;28.882;2023-07-20T11:28:23;4.35;;;2.95;;
71856;SDS011;63344;46.980;28.882;2023-07-20T11:30:55;3.67;;;2.97;;
71856;SDS011;63344;46.980;28.882;2023-07-20T11:33:42;5.80;;;3.30;;
71856;SDS011;63344;46.980;28.882;2023-07-20T11:36:22;4.47;;;2.60;;
71856;SDS011;63344;46.980;28.882;2023-07-20T11:38:58;5.20;;;2.90;;
71856;SDS011;63344;46.980;28.882;2023-07-20T11:41:27;5.50;;;2.90;;
71856;SDS011;63344;46.980;28.882;2023-07-20T11:43:57;8.82;;;3.15;;
71856;SDS011;63344;46.980;28.882;2023-07-20T11:46:24;4.53;;;2.80;;
71856;SDS011;63344;46.980;28.882;2023-07-20T11:49:00;5.07;;;2.92;;
71856;SDS011;63344;46.980;28.882;2023-07-20T11:51:28;3.90;;;2.65;;
71856;SDS011;63344;46.980;28.882;2023-07-20T11:53:56;4.97;;;3.85;;
71856;SDS011;63344;46.980;28.882;2023-07-20T11:56:26;4.13;;;2.80;;
71856;SDS011;63344;46.980;28.882;2023-07-20T11:58:54;3.35;;;2.35;;
71856;SDS011;63344;46.980;28.882;2023-07-20T12:01:25;5.47;;;2.83;;
71856;SDS011;63344;46.980;28.882;2023-07-20T12:04:04;4.72;;;2.28;;
71856;SDS011;63344;46.980;28.882;2023-07-20T12:06:36;6.85;;;2.85;;
71856;SDS011;63344;46.980;28.882;2023-07-20T12:09:12;10.57;;;3.47;;
71856;SDS011;63344;46.980;28.882;2023-07-20T12:11:44;4.50;;;2.60;;
71856;SDS011;63344;46.980;28.882;2023-07-20T12:14:12;3.90;;;2.65;;
71856;SDS011;63344;46.980;28.882;2023-07-20T12:16:43;5.10;;;2.45;;
71856;SDS011;63344;46.980;28.882;2023-07-20T12:19:12;4.55;;;2.63;;
71856;SDS011;63344;46.980;28.882;2023-07-20T12:21:40;4.55;;;2.70;;
71856;SDS011;63344;46.980;28.882;2023-07-20T12:24:10;4.57;;;2.65;;
71856;SDS011;63344;46.980;28.882;2023-07-20T12:26:38;4.97;;;2.70;;
71856;SDS011;63344;46.980;28.882;2023-07-20T12:29:06;2.53;;;2.10;;
71856;SDS011;63344;46.980;28.882;2023-07-20T12:31:36;3.80;;;2.60;;
71856;SDS011;63344;46.980;28.882;2023-07-20T12:34:05;7.07;;;2.55;;
71856;SDS011;63344;46.980;28.882;2023-07-20T12:36:34;3.58;;;2.83;;
71856;SDS011;63344;46.980;28.882;2023-07-20T12:39:31;4.28;;;2.30;;
71856;SDS011;63344;46.980;28.882;2023-07-20T12:41:59;4.07;;;2.60;;
71856;SDS011;63344;46.980;28.882;2023-07-20T12:44:27;3.90;;;2.83;;
71856;SDS011;63344;46.980;28.882;2023-07-20T12:47:09;5.22;;;2.53;;
71856;SDS011;63344;46.980;28.882;2023-07-20T12:49:37;3.15;;;2.50;;
71856;SDS011;63344;46.980;28.882;2023-07-20T12:52:06;3.35;;;2.20;;
71856;SDS011;63344;46.980;28.882;2023-07-20T12:54:35;4.43;;;2.63;;
71856;SDS011;63344;46.980;28.882;2023-07-20T12:57:03;6.15;;;2.53;;
71856;SDS011;63344;46.980;28.882;2023-07-20T12:59:33;4.88;;;3.60;;
71856;SDS011;63344;46.980;28.882;2023-07-20T13:02:02;2.65;;;2.15;;
71856;SDS011;63344;46.980;28.882;2023-07-20T13:04:33;5.47;;;2.42;;
71856;SDS011;63344;46.980;28.882;2023-07-20T13:07:16;2.92;;;2.08;;
71856;SDS011;63344;46.980;28.882;2023-07-20T13:09:53;4.32;;;2.67;;
71856;SDS011;63344;46.980;28.882;2023-07-20T13:12:22;5.93;;;2.35;;
71856;SDS011;63344;46.980;28.882;2023-07-20T13:14:52;4.65;;;2.97;;
71856;SDS011;63344;46.980;28.882;2023-07-20T13:17:19;4.13;;;2.58;;
71856;SDS011;63344;46.980;28.882;2023-07-20T13:22:14;4.18;;;2.92;;
71856;SDS011;63344;46.980;28.882;2023-07-20T13:27:12;4.88;;;2.72;;
71856;SDS011;63344;46.980;28.882;2023-07-20T13:29:40;4.78;;;2.60;;
71856;SDS011;63344;46.980;28.882;2023-07-20T13:32:07;4.53;;;3.17;;
71856;SDS011;63344;46.980;28.882;2023-07-20T13:34:36;4.57;;;2.88;;
71856;SDS011;63344;46.980;28.882;2023-07-20T13:37:06;4.45;;;2.67;;
71856;SDS011;63344;46.980;28.882;2023-07-20T13:39:39;3.17;;;2.83;;
71856;SDS011;63344;46.980;28.882;2023-07-20T13:42:09;4.43;;;2.80;;
71856;SDS011;63344;46.980;28.882;2023-07-20T13:44:38;6.65;;;2.40;;
71856;SDS011;63344;46.980;28.882;2023-07-20T13:47:08;3.63;;;2.83;;
71856;SDS011;63344;46.980;28.882;2023-07-20T13:49:43;4.22;;;2.83;;
71856;SDS011;63344;46.980;28.882;2023-07-20T13:52:14;4.38;;;2.78;;
71856;SDS011;63344;46.980;28.882;2023-07-20T13:54:46;5.63;;;2.40;;
71856;SDS011;63344;46.980;28.882;2023-07-20T13:57:18;3.50;;;3.03;;
71856;SDS011;63344;46.980;28.882;2023-07-20T14:00:02;3.83;;;2.60;;
71856;SDS011;63344;46.980;28.882;2023-07-20T14:02:39;5.85;;;3.33;;
71856;SDS011;63344;46.980;28.882;2023-07-20T14:05:20;3.53;;;2.50;;
71856;SDS011;63344;46.980;28.882;2023-07-20T14:08:07;4.72;;;2.60;;
71856;SDS011;63344;46.980;28.882;2023-07-20T14:10:35;3.42;;;2.72;;
71856;SDS011;63344;46.980;28.882;2023-07-20T14:13:08;3.33;;;2.55;;
71856;SDS011;63344;46.980;28.882;2023-07-20T14:15:35;4.43;;;2.80;;
71856;SDS011;63344;46.980;28.882;2023-07-20T14:18:03;5.00;;;2.88;;
71856;SDS011;63344;46.980;28.882;2023-07-20T14:20:30;5.38;;;2.90;;
71856;SDS011;63344;46.980;28.882;2023-07-20T14:22:58;5.70;;;2.92;;
71856;SDS011;63344;46.980;28.882;2023-07-20T14:25:27;6.05;;;2.88;;
71856;SDS011;63344;46.980;28.882;2023-07-20T14:27:58;5.22;;;2.95;;
71856;SDS011;63344;46.980;28.882;2023-07-20T14:30:29;5.50;;;2.67;;
71856;SDS011;63344;46.980;28.882;2023-07-20T14:32:57;4.57;;;2.97;;
71856;SDS011;63344;46.980;28.882;2023-07-20T14:35:25;3.55;;;2.40;;
71856;SDS011;63344;46.980;28.882;2023-07-20T14:40:24;3.38;;;2.28;;
71856;SDS011;63344;46.980;28.882;2023-07-20T14:42:52;4.80;;;2.80;;
71856;SDS011;63344;46.980;28.882;2023-07-20T14:45:31;4.72;;;2.70;;
71856;SDS011;63344;46.980;28.882;2023-07-20T14:47:58;3.05;;;2.35;;
71856;SDS011;63344;46.980;28.882;2023-07-20T14:50:27;4.57;;;2.42;;
71856;SDS011;63344;46.980;28.882;2023-07-20T14:55:22;3.55;;;2.45;;
71856;SDS011;63344;46.980;28.882;2023-07-20T14:57:50;4.47;;;2.72;;
71856;SDS011;63344;46.980;28.882;2023-07-20T15:00:18;4.72;;;2.78;;
71856;SDS011;63344;46.980;28.882;2023-07-20T15:02:46;6.32;;;3.20;;
71856;SDS011;63344;46.980;28.882;2023-07-20T15:07:49;6.78;;;2.80;;
71856;SDS011;63344;46.980;28.882;2023-07-20T15:10:17;7.20;;;2.80;;
71856;SDS011;63344;46.980;28.882;2023-07-20T15:15:15;8.25;;;3.47;;
71856;SDS011;63344;46.980;28.882;2023-07-20T15:17:43;3.92;;;2.53;;
71856;SDS011;63344;46.980;28.882;2023-07-20T15:20:15;2.85;;;2.42;;
71856;SDS011;63344;46.980;28.882;2023-07-20T15:22:43;5.85;;;2.60;;
71856;SDS011;63344;46.980;28.882;2023-07-20T15:25:15;3.63;;;2.63;;
71856;SDS011;63344;46.980;28.882;2023-07-20T15:27:44;4.43;;;2.40;;
71856;SDS011;63344;46.980;28.882;2023-07-20T15:30:17;7.07;;;3.13;;
71856;SDS011;63344;46.980;28.882;2023-07-20T15:32:48;5.53;;;3.40;;
71856;SDS011;63344;46.980;28.882;2023-07-20T15:35:18;4.68;;;2.92;;
71856;SDS011;63344;46.980;28.882;2023-07-20T15:37:46;5.68;;;2.90;;
71856;SDS011;63344;46.980;28.882;2023-07-20T15:40:16;3.13;;;2.28;;
71856;SDS011;63344;46.980;28.882;2023-07-20T15:42:43;4.53;;;2.55;;
71856;SDS011;63344;46.980;28.882;2023-07-20T15:45:21;4.05;;;2.80;;
71856;SDS011;63344;46.980;28.882;2023-07-20T15:47:49;4.65;;;2.80;;